ΕΜΥ, Εθνική Μετεωρολογική Υπηρεσία - Δελτία Καιρού, Προγνώσεις

ΑΕΡΟΝΑΥΤΙΛΙΑ

GREEK AIRPORTS CODES

TAF LGIO 132000Z 1321/1406 VRB03KT 9999 FEW025 TEMPO 1404/1406 5000 BR SCT005=

EUROPEAN AIRPORTS CODES